Alamo, IN

4:58 AM EDT on July 25, 2014 (GMT -0400)
Wabash College Campus (KINCRAWF3) Elev 778 ft | 40.04 °N, 86.91 °W | Change Station

Current weather conditions updated 6 seconds ago

Clear
Clear
55.4 °F
Feels Like 55.4 °F
N
0.0
Wind Variable Wind from East
Gusts 0.7 mph

Today is forecast to be Cooler than yesterday.

Today
High -- | Low -- °F
--% Chance of Precip.
Yesterday
High -- | Low -- °F
Precip. -- in
6:40 AM 9:08 PM
Waning Crescent, 2% visible
Pressure 30.07 in
Visibility 3.0 miles
Clouds Clear
Dew Point 54 °F
Humidity 97%
Rainfall 0.00 in
Snow Depth Not available.
UV 0 out of 12
Pollen 6.20 out of 12
Air Quality Not available.
Flu Activity Not available.
METAR KLAF 250754Z AUTO 00000KT 3SM BR CLR 12/12 A3008 RMK AO2 SLP182 T01220117

More Conditions Fewer Conditions

Pressure 30.07 in
Visibility 3.0 miles
Clouds Clear
Dew Point 54 °F
Humidity 97%
Rainfall 0.00 in
Snow Depth Not available.
UV 0 out of 12
Pollen 6.20 out of 12
Air Quality Not available.
Flu Activity Not available.
METAR KLAF 250754Z AUTO 00000KT 3SM BR CLR 12/12 A3008 RMK AO2 SLP182 T01220117

More Conditions Fewer Conditions

10-Day Weather Forecast

Almanac

Astronomy

Jul. 25, 2014 Rise Set
Actual Time 6:40 AM EDT 9:08 PM EDT
Civil Twilight 6:09 AM EDT 9:39 PM EDT
Nautical Twilight 5:30 AM EDT 10:17 PM EDT
Astronomical Twilight 4:48 AM EDT 11:00 PM EDT
Moon 5:39 AM EDT 8:05 PM EDT
Length of Visible Light 15h 30m
Length of Day
14h 28m
Tomorrow will be 1m 47s shorter.
Waning Crescent, 2% of the Moon is Illuminated
Today
Waning Crescent
Jul 26
New
Aug 3
First Quarter
Aug 10
Full
Aug 17
Last Quarter

Today's Extremes

State Highs State Lows

Community

WunderPhotos

Upload Photos

1,737,276 photos uploaded!

Nearby

Snow Depth

Station Depth Elevation
No new snow has been reported.

Earthquake Activity

City Distance Mag. Time & Date
No recent earthquake activity has been reported nearby.
Minimum magnitude displayed is 2.5.

Coastal Water Temperatures

Place Temperature
No Stations Reporting

Nearby Weather Stations

Station Location Temp. Dew Point Humidity Wind Precip. Elev Updated Type
Wabash College Campus, Crawfordsville, IN 55.4 °F 54 °F 97% East  at  0.0 mph 0.00 in / hr 778 ft 4:58 AM EDT Rapid Fire
Greencastle, IN 51.1 °F 50 °F 96% ESE  at  0.0 mph - / hr 814 ft 4:43 AM EDT Normal
Rockville, IN 54.1 °F 54 °F 98% ENE  at  0.0 mph 0.00 in / hr 702 ft 4:57 AM EDT Normal
Romney, IN 52.7 °F 52 °F 97% NNW  at  0.0 mph - / hr 738 ft 4:55 AM EDT Normal
Ash Street, Jamestown, IN 52.3 °F 50 °F 93% WSW  at  0.0 mph 0.00 in / hr 974 ft 4:53 AM EDT Normal

Show More Stations Show Fewer Stations